sensor_id;sensor_type;location;lat;lon;timestamp;P1;durP1;ratioP1;P2;durP2;ratioP2
9234;SDS011;4652;42.716;23.218;2024-02-23T00:02:07;9.18;;;5.68;;
9234;SDS011;4652;42.716;23.218;2024-02-23T00:04:34;16.25;;;7.53;;
9234;SDS011;4652;42.716;23.218;2024-02-23T00:07:00;12.07;;;6.07;;
9234;SDS011;4652;42.716;23.218;2024-02-23T00:09:27;11.25;;;6.32;;
9234;SDS011;4652;42.716;23.218;2024-02-23T00:11:53;9.73;;;5.15;;
9234;SDS011;4652;42.716;23.218;2024-02-23T00:14:19;12.23;;;5.68;;
9234;SDS011;4652;42.716;23.218;2024-02-23T00:17:02;11.60;;;6.78;;
9234;SDS011;4652;42.716;23.218;2024-02-23T00:19:29;15.63;;;7.53;;
9234;SDS011;4652;42.716;23.218;2024-02-23T00:22:05;12.02;;;6.55;;
9234;SDS011;4652;42.716;23.218;2024-02-23T00:24:30;12.13;;;6.13;;
9234;SDS011;4652;42.716;23.218;2024-02-23T00:27:14;11.50;;;6.10;;
9234;SDS011;4652;42.716;23.218;2024-02-23T00:29:40;12.30;;;6.55;;
9234;SDS011;4652;42.716;23.218;2024-02-23T00:32:05;10.60;;;5.68;;
9234;SDS011;4652;42.716;23.218;2024-02-23T00:34:33;11.77;;;6.07;;
9234;SDS011;4652;42.716;23.218;2024-02-23T00:36:59;13.48;;;6.20;;
9234;SDS011;4652;42.716;23.218;2024-02-23T00:39:27;10.38;;;5.68;;
9234;SDS011;4652;42.716;23.218;2024-02-23T00:41:52;12.10;;;5.55;;
9234;SDS011;4652;42.716;23.218;2024-02-23T00:44:18;11.15;;;6.55;;
9234;SDS011;4652;42.716;23.218;2024-02-23T00:47:17;14.23;;;7.30;;
9234;SDS011;4652;42.716;23.218;2024-02-23T00:49:51;9.20;;;5.85;;
9234;SDS011;4652;42.716;23.218;2024-02-23T00:52:52;8.15;;;4.25;;
9234;SDS011;4652;42.716;23.218;2024-02-23T00:55:19;9.23;;;5.35;;
9234;SDS011;4652;42.716;23.218;2024-02-23T00:57:45;8.57;;;4.40;;
9234;SDS011;4652;42.716;23.218;2024-02-23T01:00:35;6.07;;;4.30;;
9234;SDS011;4652;42.716;23.218;2024-02-23T01:03:01;10.15;;;5.05;;
9234;SDS011;4652;42.716;23.218;2024-02-23T01:05:27;10.75;;;5.95;;
9234;SDS011;4652;42.716;23.218;2024-02-23T01:07:53;11.27;;;5.82;;
9234;SDS011;4652;42.716;23.218;2024-02-23T01:10:24;11.18;;;4.70;;
9234;SDS011;4652;42.716;23.218;2024-02-23T01:12:50;7.85;;;4.70;;
9234;SDS011;4652;42.716;23.218;2024-02-23T01:15:16;11.00;;;5.05;;
9234;SDS011;4652;42.716;23.218;2024-02-23T01:17:53;10.57;;;4.82;;
9234;SDS011;4652;42.716;23.218;2024-02-23T01:20:25;10.65;;;4.57;;
9234;SDS011;4652;42.716;23.218;2024-02-23T01:22:50;11.35;;;5.57;;
9234;SDS011;4652;42.716;23.218;2024-02-23T01:25:18;10.38;;;5.97;;
9234;SDS011;4652;42.716;23.218;2024-02-23T01:27:44;9.75;;;5.18;;
9234;SDS011;4652;42.716;23.218;2024-02-23T01:32:39;8.90;;;5.03;;
9234;SDS011;4652;42.716;23.218;2024-02-23T01:35:12;10.65;;;5.03;;
9234;SDS011;4652;42.716;23.218;2024-02-23T01:37:37;10.48;;;5.90;;
9234;SDS011;4652;42.716;23.218;2024-02-23T01:40:03;10.75;;;6.25;;
9234;SDS011;4652;42.716;23.218;2024-02-23T01:42:29;10.75;;;5.63;;
9234;SDS011;4652;42.716;23.218;2024-02-23T01:45:01;11.00;;;6.15;;
9234;SDS011;4652;42.716;23.218;2024-02-23T01:47:34;9.15;;;5.07;;
9234;SDS011;4652;42.716;23.218;2024-02-23T01:50:01;11.57;;;5.93;;
9234;SDS011;4652;42.716;23.218;2024-02-23T01:52:28;11.38;;;6.40;;
9234;SDS011;4652;42.716;23.218;2024-02-23T01:54:54;10.48;;;5.43;;
9234;SDS011;4652;42.716;23.218;2024-02-23T01:57:22;9.25;;;5.68;;
9234;SDS011;4652;42.716;23.218;2024-02-23T01:59:50;11.82;;;5.60;;
9234;SDS011;4652;42.716;23.218;2024-02-23T02:10:33;8.05;;;4.15;;
9234;SDS011;4652;42.716;23.218;2024-02-23T02:13:05;8.85;;;5.25;;
9234;SDS011;4652;42.716;23.218;2024-02-23T02:15:41;9.75;;;5.15;;
9234;SDS011;4652;42.716;23.218;2024-02-23T02:18:11;7.85;;;5.07;;
9234;SDS011;4652;42.716;23.218;2024-02-23T02:20:40;6.68;;;4.32;;
9234;SDS011;4652;42.716;23.218;2024-02-23T02:23:22;9.48;;;4.57;;
9234;SDS011;4652;42.716;23.218;2024-02-23T02:25:52;11.50;;;5.57;;
9234;SDS011;4652;42.716;23.218;2024-02-23T02:28:40;10.88;;;5.00;;
9234;SDS011;4652;42.716;23.218;2024-02-23T02:31:13;12.60;;;5.55;;
9234;SDS011;4652;42.716;23.218;2024-02-23T02:33:39;10.10;;;5.18;;
9234;SDS011;4652;42.716;23.218;2024-02-23T02:36:05;10.00;;;5.50;;
9234;SDS011;4652;42.716;23.218;2024-02-23T02:41:23;8.52;;;4.18;;
9234;SDS011;4652;42.716;23.218;2024-02-23T02:43:56;11.43;;;5.13;;
9234;SDS011;4652;42.716;23.218;2024-02-23T02:46:22;9.18;;;4.00;;
9234;SDS011;4652;42.716;23.218;2024-02-23T02:48:50;9.52;;;5.72;;
9234;SDS011;4652;42.716;23.218;2024-02-23T02:51:16;7.45;;;4.68;;
9234;SDS011;4652;42.716;23.218;2024-02-23T02:53:47;8.93;;;4.88;;
9234;SDS011;4652;42.716;23.218;2024-02-23T02:56:19;9.40;;;4.75;;
9234;SDS011;4652;42.716;23.218;2024-02-23T02:58:46;13.60;;;5.97;;
9234;SDS011;4652;42.716;23.218;2024-02-23T03:01:15;8.25;;;4.80;;
9234;SDS011;4652;42.716;23.218;2024-02-23T03:03:40;11.63;;;4.47;;
9234;SDS011;4652;42.716;23.218;2024-02-23T03:06:11;7.93;;;4.45;;
9234;SDS011;4652;42.716;23.218;2024-02-23T03:08:41;11.70;;;5.13;;
9234;SDS011;4652;42.716;23.218;2024-02-23T03:11:08;10.90;;;4.80;;
9234;SDS011;4652;42.716;23.218;2024-02-23T03:13:43;9.65;;;4.85;;
9234;SDS011;4652;42.716;23.218;2024-02-23T03:16:14;11.27;;;4.93;;
9234;SDS011;4652;42.716;23.218;2024-02-23T03:18:43;8.73;;;5.05;;
9234;SDS011;4652;42.716;23.218;2024-02-23T03:21:10;10.70;;;5.38;;
9234;SDS011;4652;42.716;23.218;2024-02-23T03:23:45;9.30;;;5.43;;
9234;SDS011;4652;42.716;23.218;2024-02-23T03:26:11;9.80;;;5.15;;
9234;SDS011;4652;42.716;23.218;2024-02-23T03:28:42;9.60;;;4.72;;
9234;SDS011;4652;42.716;23.218;2024-02-23T03:31:08;9.30;;;4.55;;
9234;SDS011;4652;42.716;23.218;2024-02-23T03:33:41;8.32;;;4.82;;
9234;SDS011;4652;42.716;23.218;2024-02-23T03:36:07;9.25;;;4.70;;
9234;SDS011;4652;42.716;23.218;2024-02-23T03:38:33;11.13;;;6.00;;
9234;SDS011;4652;42.716;23.218;2024-02-23T03:41:00;6.75;;;4.05;;
9234;SDS011;4652;42.716;23.218;2024-02-23T03:43:28;10.40;;;5.97;;
9234;SDS011;4652;42.716;23.218;2024-02-23T03:45:55;11.32;;;5.18;;
9234;SDS011;4652;42.716;23.218;2024-02-23T03:48:27;10.13;;;5.53;;
9234;SDS011;4652;42.716;23.218;2024-02-23T03:51:17;10.15;;;4.85;;
9234;SDS011;4652;42.716;23.218;2024-02-23T03:53:58;12.05;;;5.38;;
9234;SDS011;4652;42.716;23.218;2024-02-23T03:56:23;9.25;;;5.32;;
9234;SDS011;4652;42.716;23.218;2024-02-23T03:58:49;8.55;;;5.18;;
9234;SDS011;4652;42.716;23.218;2024-02-23T04:01:15;10.20;;;5.20;;
9234;SDS011;4652;42.716;23.218;2024-02-23T04:03:40;10.52;;;5.40;;
9234;SDS011;4652;42.716;23.218;2024-02-23T04:06:08;9.23;;;5.13;;
9234;SDS011;4652;42.716;23.218;2024-02-23T04:08:34;13.25;;;5.35;;
9234;SDS011;4652;42.716;23.218;2024-02-23T04:11:00;11.05;;;5.40;;
9234;SDS011;4652;42.716;23.218;2024-02-23T04:13:26;11.90;;;4.90;;
9234;SDS011;4652;42.716;23.218;2024-02-23T04:15:52;8.45;;;4.60;;
9234;SDS011;4652;42.716;23.218;2024-02-23T04:18:18;9.27;;;4.85;;
9234;SDS011;4652;42.716;23.218;2024-02-23T04:20:57;9.57;;;4.13;;
9234;SDS011;4652;42.716;23.218;2024-02-23T04:23:51;11.68;;;5.68;;
9234;SDS011;4652;42.716;23.218;2024-02-23T04:29:17;12.48;;;6.90;;
9234;SDS011;4652;42.716;23.218;2024-02-23T04:31:55;12.00;;;6.75;;
9234;SDS011;4652;42.716;23.218;2024-02-23T04:34:22;11.75;;;5.45;;
9234;SDS011;4652;42.716;23.218;2024-02-23T04:36:50;19.70;;;12.15;;
9234;SDS011;4652;42.716;23.218;2024-02-23T04:39:21;9.25;;;5.45;;
9234;SDS011;4652;42.716;23.218;2024-02-23T04:41:47;11.68;;;6.32;;
9234;SDS011;4652;42.716;23.218;2024-02-23T04:44:12;11.70;;;5.93;;
9234;SDS011;4652;42.716;23.218;2024-02-23T04:46:43;11.38;;;4.93;;
9234;SDS011;4652;42.716;23.218;2024-02-23T04:49:18;12.48;;;6.53;;
9234;SDS011;4652;42.716;23.218;2024-02-23T04:51:48;13.75;;;7.00;;
9234;SDS011;4652;42.716;23.218;2024-02-23T04:54:14;10.80;;;5.75;;
9234;SDS011;4652;42.716;23.218;2024-02-23T04:56:42;12.68;;;6.20;;
9234;SDS011;4652;42.716;23.218;2024-02-23T04:59:15;10.15;;;6.38;;
9234;SDS011;4652;42.716;23.218;2024-02-23T05:01:44;15.32;;;6.22;;
9234;SDS011;4652;42.716;23.218;2024-02-23T05:06:38;11.35;;;5.53;;
9234;SDS011;4652;42.716;23.218;2024-02-23T05:09:04;9.95;;;5.22;;
9234;SDS011;4652;42.716;23.218;2024-02-23T05:11:34;11.20;;;6.28;;
9234;SDS011;4652;42.716;23.218;2024-02-23T05:14:01;12.80;;;6.05;;
9234;SDS011;4652;42.716;23.218;2024-02-23T05:16:27;9.60;;;4.63;;
9234;SDS011;4652;42.716;23.218;2024-02-23T05:18:54;12.02;;;6.30;;
9234;SDS011;4652;42.716;23.218;2024-02-23T05:21:21;11.90;;;6.78;;
9234;SDS011;4652;42.716;23.218;2024-02-23T05:23:47;14.27;;;5.93;;
9234;SDS011;4652;42.716;23.218;2024-02-23T05:26:13;15.73;;;7.03;;
9234;SDS011;4652;42.716;23.218;2024-02-23T05:28:40;12.18;;;5.93;;
9234;SDS011;4652;42.716;23.218;2024-02-23T05:31:06;12.10;;;5.38;;
9234;SDS011;4652;42.716;23.218;2024-02-23T05:33:32;12.50;;;5.45;;
9234;SDS011;4652;42.716;23.218;2024-02-23T05:35:58;11.77;;;6.13;;
9234;SDS011;4652;42.716;23.218;2024-02-23T05:38:25;11.57;;;6.07;;
9234;SDS011;4652;42.716;23.218;2024-02-23T05:40:52;15.35;;;6.85;;
9234;SDS011;4652;42.716;23.218;2024-02-23T05:43:18;11.00;;;5.70;;
9234;SDS011;4652;42.716;23.218;2024-02-23T05:45:44;10.75;;;5.43;;
9234;SDS011;4652;42.716;23.218;2024-02-23T05:48:11;13.68;;;5.35;;
9234;SDS011;4652;42.716;23.218;2024-02-23T05:50:38;9.30;;;5.80;;
9234;SDS011;4652;42.716;23.218;2024-02-23T05:53:04;12.30;;;6.03;;
9234;SDS011;4652;42.716;23.218;2024-02-23T05:55:31;12.90;;;5.80;;
9234;SDS011;4652;42.716;23.218;2024-02-23T05:57:58;15.00;;;6.22;;
9234;SDS011;4652;42.716;23.218;2024-02-23T06:00:25;10.60;;;6.28;;
9234;SDS011;4652;42.716;23.218;2024-02-23T06:02:51;19.80;;;6.88;;
9234;SDS011;4652;42.716;23.218;2024-02-23T06:05:17;12.55;;;6.38;;
9234;SDS011;4652;42.716;23.218;2024-02-23T06:07:43;13.07;;;6.65;;
9234;SDS011;4652;42.716;23.218;2024-02-23T06:10:10;14.88;;;6.43;;
9234;SDS011;4652;42.716;23.218;2024-02-23T06:12:36;13.32;;;7.15;;
9234;SDS011;4652;42.716;23.218;2024-02-23T06:15:04;12.20;;;6.13;;
9234;SDS011;4652;42.716;23.218;2024-02-23T06:17:31;13.43;;;7.75;;
9234;SDS011;4652;42.716;23.218;2024-02-23T06:19:58;13.38;;;7.35;;
9234;SDS011;4652;42.716;23.218;2024-02-23T06:22:25;12.40;;;6.55;;
9234;SDS011;4652;42.716;23.218;2024-02-23T06:25:15;10.52;;;5.93;;
9234;SDS011;4652;42.716;23.218;2024-02-23T06:27:43;10.63;;;6.68;;
9234;SDS011;4652;42.716;23.218;2024-02-23T06:30:17;10.77;;;6.38;;
9234;SDS011;4652;42.716;23.218;2024-02-23T06:32:47;13.90;;;6.63;;
9234;SDS011;4652;42.716;23.218;2024-02-23T06:35:33;11.80;;;6.15;;
9234;SDS011;4652;42.716;23.218;2024-02-23T06:37:59;16.15;;;7.57;;
9234;SDS011;4652;42.716;23.218;2024-02-23T06:40:24;10.70;;;6.40;;
9234;SDS011;4652;42.716;23.218;2024-02-23T06:42:50;11.18;;;5.97;;
9234;SDS011;4652;42.716;23.218;2024-02-23T06:45:16;14.20;;;7.90;;
9234;SDS011;4652;42.716;23.218;2024-02-23T06:47:44;12.98;;;7.82;;
9234;SDS011;4652;42.716;23.218;2024-02-23T06:50:09;12.88;;;8.32;;
9234;SDS011;4652;42.716;23.218;2024-02-23T06:52:35;14.15;;;7.82;;
9234;SDS011;4652;42.716;23.218;2024-02-23T06:55:02;10.85;;;7.32;;
9234;SDS011;4652;42.716;23.218;2024-02-23T06:57:28;12.50;;;7.10;;
9234;SDS011;4652;42.716;23.218;2024-02-23T06:59:56;13.95;;;8.15;;
9234;SDS011;4652;42.716;23.218;2024-02-23T07:02:21;12.95;;;8.27;;
9234;SDS011;4652;42.716;23.218;2024-02-23T07:04:47;14.23;;;7.55;;
9234;SDS011;4652;42.716;23.218;2024-02-23T07:07:12;18.73;;;10.90;;
9234;SDS011;4652;42.716;23.218;2024-02-23T07:09:38;14.23;;;8.73;;
9234;SDS011;4652;42.716;23.218;2024-02-23T07:12:04;14.25;;;8.15;;
9234;SDS011;4652;42.716;23.218;2024-02-23T07:14:30;13.18;;;8.15;;
9234;SDS011;4652;42.716;23.218;2024-02-23T07:16:55;13.10;;;7.30;;
9234;SDS011;4652;42.716;23.218;2024-02-23T07:19:21;12.95;;;8.15;;
9234;SDS011;4652;42.716;23.218;2024-02-23T07:21:48;13.23;;;7.43;;
9234;SDS011;4652;42.716;23.218;2024-02-23T07:24:14;19.02;;;8.23;;
9234;SDS011;4652;42.716;23.218;2024-02-23T07:26:41;13.02;;;7.93;;
9234;SDS011;4652;42.716;23.218;2024-02-23T07:29:25;14.88;;;7.72;;
9234;SDS011;4652;42.716;23.218;2024-02-23T07:31:51;14.73;;;8.38;;
9234;SDS011;4652;42.716;23.218;2024-02-23T07:34:17;17.70;;;8.45;;
9234;SDS011;4652;42.716;23.218;2024-02-23T07:36:44;19.85;;;8.25;;
9234;SDS011;4652;42.716;23.218;2024-02-23T07:39:10;15.63;;;9.30;;
9234;SDS011;4652;42.716;23.218;2024-02-23T07:41:37;11.98;;;7.55;;
9234;SDS011;4652;42.716;23.218;2024-02-23T07:44:03;21.20;;;9.02;;
9234;SDS011;4652;42.716;23.218;2024-02-23T07:46:29;21.15;;;10.95;;
9234;SDS011;4652;42.716;23.218;2024-02-23T07:48:55;17.00;;;8.68;;
9234;SDS011;4652;42.716;23.218;2024-02-23T07:51:21;18.20;;;10.32;;
9234;SDS011;4652;42.716;23.218;2024-02-23T07:53:48;15.95;;;8.90;;
9234;SDS011;4652;42.716;23.218;2024-02-23T07:56:14;16.80;;;8.02;;
9234;SDS011;4652;42.716;23.218;2024-02-23T07:58:40;16.80;;;9.77;;
9234;SDS011;4652;42.716;23.218;2024-02-23T09:25:18;1.35;;;1.15;;
9234;SDS011;4652;42.716;23.218;2024-02-23T09:28:25;2.78;;;1.23;;
9234;SDS011;4652;42.716;23.218;2024-02-23T09:30:53;2.72;;;1.58;;
9234;SDS011;4652;42.716;23.218;2024-02-23T09:33:19;2.58;;;1.40;;
9234;SDS011;4652;42.716;23.218;2024-02-23T09:35:45;2.08;;;1.30;;
9234;SDS011;4652;42.716;23.218;2024-02-23T09:38:37;2.08;;;1.23;;
9234;SDS011;4652;42.716;23.218;2024-02-23T09:41:07;0.93;;;0.73;;
9234;SDS011;4652;42.716;23.218;2024-02-23T09:43:57;2.47;;;1.65;;
9234;SDS011;4652;42.716;23.218;2024-02-23T09:46:47;1.38;;;1.20;;
9234;SDS011;4652;42.716;23.218;2024-02-23T09:49:15;1.88;;;1.15;;
9234;SDS011;4652;42.716;23.218;2024-02-23T09:51:43;1.35;;;1.25;;
9234;SDS011;4652;42.716;23.218;2024-02-23T09:54:18;1.85;;;1.35;;
9234;SDS011;4652;42.716;23.218;2024-02-23T09:56:45;2.65;;;1.20;;
9234;SDS011;4652;42.716;23.218;2024-02-23T09:59:13;4.95;;;2.17;;
9234;SDS011;4652;42.716;23.218;2024-02-23T10:01:46;1.90;;;1.10;;
9234;SDS011;4652;42.716;23.218;2024-02-23T10:04:13;1.48;;;0.90;;
9234;SDS011;4652;42.716;23.218;2024-02-23T10:06:40;1.90;;;1.20;;
9234;SDS011;4652;42.716;23.218;2024-02-23T10:09:07;1.75;;;1.27;;
9234;SDS011;4652;42.716;23.218;2024-02-23T10:12:03;3.50;;;1.17;;
9234;SDS011;4652;42.716;23.218;2024-02-23T10:14:37;1.50;;;1.00;;
9234;SDS011;4652;42.716;23.218;2024-02-23T10:17:08;2.03;;;1.13;;
9234;SDS011;4652;42.716;23.218;2024-02-23T10:19:35;1.98;;;1.20;;
9234;SDS011;4652;42.716;23.218;2024-02-23T10:22:14;3.65;;;1.80;;
9234;SDS011;4652;42.716;23.218;2024-02-23T10:24:42;0.88;;;0.88;;
9234;SDS011;4652;42.716;23.218;2024-02-23T10:27:09;1.10;;;0.85;;
9234;SDS011;4652;42.716;23.218;2024-02-23T10:29:35;2.22;;;1.23;;
9234;SDS011;4652;42.716;23.218;2024-02-23T10:32:04;2.17;;;1.55;;
9234;SDS011;4652;42.716;23.218;2024-02-23T10:34:36;1.30;;;1.27;;
9234;SDS011;4652;42.716;23.218;2024-02-23T10:37:12;2.85;;;1.50;;
9234;SDS011;4652;42.716;23.218;2024-02-23T10:39:42;2.30;;;1.48;;
9234;SDS011;4652;42.716;23.218;2024-02-23T10:42:23;2.08;;;1.30;;
9234;SDS011;4652;42.716;23.218;2024-02-23T10:44:52;2.65;;;1.75;;
9234;SDS011;4652;42.716;23.218;2024-02-23T10:47:50;1.40;;;0.93;;
9234;SDS011;4652;42.716;23.218;2024-02-23T10:50:17;1.98;;;1.20;;
9234;SDS011;4652;42.716;23.218;2024-02-23T10:52:45;2.13;;;0.93;;
9234;SDS011;4652;42.716;23.218;2024-02-23T10:55:31;1.05;;;0.77;;
9234;SDS011;4652;42.716;23.218;2024-02-23T10:58:00;1.40;;;1.10;;
9234;SDS011;4652;42.716;23.218;2024-02-23T11:00:36;2.42;;;1.42;;
9234;SDS011;4652;42.716;23.218;2024-02-23T11:03:04;2.20;;;1.20;;
9234;SDS011;4652;42.716;23.218;2024-02-23T11:05:33;4.60;;;1.50;;
9234;SDS011;4652;42.716;23.218;2024-02-23T11:08:06;3.65;;;1.25;;
9234;SDS011;4652;42.716;23.218;2024-02-23T11:10:54;2.05;;;1.25;;
9234;SDS011;4652;42.716;23.218;2024-02-23T11:13:36;2.58;;;1.30;;
9234;SDS011;4652;42.716;23.218;2024-02-23T11:16:05;1.13;;;1.02;;
9234;SDS011;4652;42.716;23.218;2024-02-23T11:18:41;4.45;;;1.20;;
9234;SDS011;4652;42.716;23.218;2024-02-23T11:21:09;4.35;;;1.20;;
9234;SDS011;4652;42.716;23.218;2024-02-23T11:23:44;1.15;;;1.05;;
9234;SDS011;4652;42.716;23.218;2024-02-23T11:26:16;2.08;;;1.08;;
9234;SDS011;4652;42.716;23.218;2024-02-23T11:28:42;3.90;;;2.50;;
9234;SDS011;4652;42.716;23.218;2024-02-23T11:31:19;3.53;;;1.42;;
9234;SDS011;4652;42.716;23.218;2024-02-23T11:33:55;2.25;;;1.05;;
9234;SDS011;4652;42.716;23.218;2024-02-23T11:36:29;3.53;;;2.00;;
9234;SDS011;4652;42.716;23.218;2024-02-23T11:39:03;1.73;;;0.95;;
9234;SDS011;4652;42.716;23.218;2024-02-23T11:41:36;1.45;;;1.10;;
9234;SDS011;4652;42.716;23.218;2024-02-23T11:44:03;1.38;;;1.05;;
9234;SDS011;4652;42.716;23.218;2024-02-23T11:46:50;1.25;;;1.13;;
9234;SDS011;4652;42.716;23.218;2024-02-23T11:49:19;1.60;;;0.98;;
9234;SDS011;4652;42.716;23.218;2024-02-23T11:51:46;2.58;;;1.10;;
9234;SDS011;4652;42.716;23.218;2024-02-23T11:54:11;1.73;;;0.73;;
9234;SDS011;4652;42.716;23.218;2024-02-23T11:56:37;1.67;;;1.30;;
9234;SDS011;4652;42.716;23.218;2024-02-23T11:59:03;2.05;;;1.35;;
9234;SDS011;4652;42.716;23.218;2024-02-23T12:01:35;1.73;;;1.30;;
9234;SDS011;4652;42.716;23.218;2024-02-23T12:04:03;2.47;;;0.73;;
9234;SDS011;4652;42.716;23.218;2024-02-23T12:06:44;1.50;;;1.00;;
9234;SDS011;4652;42.716;23.218;2024-02-23T12:09:10;1.88;;;1.02;;
9234;SDS011;4652;42.716;23.218;2024-02-23T12:11:37;3.05;;;1.02;;
9234;SDS011;4652;42.716;23.218;2024-02-23T12:14:18;3.80;;;1.17;;
9234;SDS011;4652;42.716;23.218;2024-02-23T12:16:51;1.52;;;1.20;;
9234;SDS011;4652;42.716;23.218;2024-02-23T12:19:17;1.75;;;1.10;;
9234;SDS011;4652;42.716;23.218;2024-02-23T12:21:46;1.13;;;0.90;;
9234;SDS011;4652;42.716;23.218;2024-02-23T12:24:12;2.28;;;1.40;;
9234;SDS011;4652;42.716;23.218;2024-02-23T12:26:38;3.20;;;1.20;;
9234;SDS011;4652;42.716;23.218;2024-02-23T12:29:04;0.98;;;0.88;;
9234;SDS011;4652;42.716;23.218;2024-02-23T12:31:32;1.38;;;0.70;;
9234;SDS011;4652;42.716;23.218;2024-02-23T12:33:58;0.80;;;0.55;;
9234;SDS011;4652;42.716;23.218;2024-02-23T12:36:24;1.40;;;0.90;;
9234;SDS011;4652;42.716;23.218;2024-02-23T12:38:56;2.45;;;1.23;;
9234;SDS011;4652;42.716;23.218;2024-02-23T12:41:24;1.45;;;1.23;;
9234;SDS011;4652;42.716;23.218;2024-02-23T12:43:52;2.22;;;1.25;;
9234;SDS011;4652;42.716;23.218;2024-02-23T12:48:43;2.10;;;0.90;;
9234;SDS011;4652;42.716;23.218;2024-02-23T12:51:15;5.20;;;1.20;;
9234;SDS011;4652;42.716;23.218;2024-02-23T12:53:46;2.80;;;0.95;;
9234;SDS011;4652;42.716;23.218;2024-02-23T12:56:20;2.05;;;0.95;;
9234;SDS011;4652;42.716;23.218;2024-02-23T12:58:46;1.50;;;1.17;;
9234;SDS011;4652;42.716;23.218;2024-02-23T13:01:13;3.50;;;1.08;;
9234;SDS011;4652;42.716;23.218;2024-02-23T13:03:47;1.30;;;0.65;;
9234;SDS011;4652;42.716;23.218;2024-02-23T13:06:20;2.97;;;1.35;;
9234;SDS011;4652;42.716;23.218;2024-02-23T13:08:55;3.15;;;1.42;;
9234;SDS011;4652;42.716;23.218;2024-02-23T13:11:23;1.55;;;0.70;;
9234;SDS011;4652;42.716;23.218;2024-02-23T13:13:49;3.17;;;1.45;;
9234;SDS011;4652;42.716;23.218;2024-02-23T13:16:16;1.02;;;0.70;;
9234;SDS011;4652;42.716;23.218;2024-02-23T13:18:42;1.98;;;1.30;;
9234;SDS011;4652;42.716;23.218;2024-02-23T13:21:09;1.35;;;0.80;;
9234;SDS011;4652;42.716;23.218;2024-02-23T13:23:35;1.52;;;0.90;;
9234;SDS011;4652;42.716;23.218;2024-02-23T13:26:03;1.40;;;1.30;;
9234;SDS011;4652;42.716;23.218;2024-02-23T13:28:29;1.58;;;1.05;;
9234;SDS011;4652;42.716;23.218;2024-02-23T13:31:01;1.13;;;1.02;;
9234;SDS011;4652;42.716;23.218;2024-02-23T13:33:28;1.23;;;1.10;;
9234;SDS011;4652;42.716;23.218;2024-02-23T13:35:54;5.43;;;1.77;;
9234;SDS011;4652;42.716;23.218;2024-02-23T13:38:27;7.75;;;1.67;;
9234;SDS011;4652;42.716;23.218;2024-02-23T13:41:03;2.75;;;1.40;;
9234;SDS011;4652;42.716;23.218;2024-02-23T13:43:33;2.63;;;1.17;;
9234;SDS011;4652;42.716;23.218;2024-02-23T13:45:59;3.28;;;1.15;;
9234;SDS011;4652;42.716;23.218;2024-02-23T13:48:25;1.60;;;0.90;;
9234;SDS011;4652;42.716;23.218;2024-02-23T13:50:51;3.13;;;0.82;;
9234;SDS011;4652;42.716;23.218;2024-02-23T13:53:17;1.98;;;1.00;;
9234;SDS011;4652;42.716;23.218;2024-02-23T13:55:48;8.07;;;1.67;;
9234;SDS011;4652;42.716;23.218;2024-02-23T13:58:15;2.65;;;1.33;;
9234;SDS011;4652;42.716;23.218;2024-02-23T14:17:44;1.42;;;1.23;;
9234;SDS011;4652;42.716;23.218;2024-02-23T14:22:56;1.10;;;0.80;;
9234;SDS011;4652;42.716;23.218;2024-02-23T14:25:23;1.70;;;1.30;;
9234;SDS011;4652;42.716;23.218;2024-02-23T14:28:01;2.00;;;1.38;;
9234;SDS011;4652;42.716;23.218;2024-02-23T14:30:30;2.53;;;1.60;;
9234;SDS011;4652;42.716;23.218;2024-02-23T20:03:44;2.90;;;1.70;;
9234;SDS011;4652;42.716;23.218;2024-02-23T20:06:11;2.42;;;1.63;;
9234;SDS011;4652;42.716;23.218;2024-02-23T20:08:38;5.88;;;2.08;;
9234;SDS011;4652;42.716;23.218;2024-02-23T20:11:05;2.88;;;1.48;;
9234;SDS011;4652;42.716;23.218;2024-02-23T20:13:33;2.97;;;1.65;;
9234;SDS011;4652;42.716;23.218;2024-02-23T20:16:00;3.58;;;2.00;;
9234;SDS011;4652;42.716;23.218;2024-02-23T20:18:27;3.00;;;2.15;;
9234;SDS011;4652;42.716;23.218;2024-02-23T20:20:54;4.05;;;1.73;;
9234;SDS011;4652;42.716;23.218;2024-02-23T20:23:21;2.00;;;1.67;;
9234;SDS011;4652;42.716;23.218;2024-02-23T20:25:47;3.33;;;1.77;;
9234;SDS011;4652;42.716;23.218;2024-02-23T20:28:13;2.40;;;1.58;;
9234;SDS011;4652;42.716;23.218;2024-02-23T20:30:39;2.88;;;1.60;;
9234;SDS011;4652;42.716;23.218;2024-02-23T20:33:07;2.25;;;1.92;;
9234;SDS011;4652;42.716;23.218;2024-02-23T20:35:34;1.40;;;1.30;;
9234;SDS011;4652;42.716;23.218;2024-02-23T20:38:01;2.58;;;1.70;;
9234;SDS011;4652;42.716;23.218;2024-02-23T20:40:28;1.63;;;1.08;;
9234;SDS011;4652;42.716;23.218;2024-02-23T20:42:54;5.80;;;1.60;;
9234;SDS011;4652;42.716;23.218;2024-02-23T20:45:20;3.38;;;1.95;;
9234;SDS011;4652;42.716;23.218;2024-02-23T20:47:47;2.67;;;1.50;;
9234;SDS011;4652;42.716;23.218;2024-02-23T20:50:14;3.22;;;2.15;;
9234;SDS011;4652;42.716;23.218;2024-02-23T20:52:40;2.63;;;1.90;;
9234;SDS011;4652;42.716;23.218;2024-02-23T20:55:07;2.67;;;1.75;;
9234;SDS011;4652;42.716;23.218;2024-02-23T20:57:33;3.78;;;2.58;;
9234;SDS011;4652;42.716;23.218;2024-02-23T20:59:58;2.63;;;1.92;;
9234;SDS011;4652;42.716;23.218;2024-02-23T21:02:24;3.10;;;1.85;;
9234;SDS011;4652;42.716;23.218;2024-02-23T21:04:50;3.72;;;2.13;;
9234;SDS011;4652;42.716;23.218;2024-02-23T21:07:16;2.72;;;1.45;;
9234;SDS011;4652;42.716;23.218;2024-02-23T21:09:43;2.05;;;1.67;;
9234;SDS011;4652;42.716;23.218;2024-02-23T21:12:09;3.35;;;2.25;;
9234;SDS011;4652;42.716;23.218;2024-02-23T21:14:34;4.40;;;1.35;;
9234;SDS011;4652;42.716;23.218;2024-02-23T21:17:00;4.35;;;2.38;;
9234;SDS011;4652;42.716;23.218;2024-02-23T21:19:26;4.70;;;1.83;;
9234;SDS011;4652;42.716;23.218;2024-02-23T21:21:52;2.15;;;1.83;;
9234;SDS011;4652;42.716;23.218;2024-02-23T21:24:17;3.28;;;1.73;;
9234;SDS011;4652;42.716;23.218;2024-02-23T21:26:43;3.50;;;2.10;;
9234;SDS011;4652;42.716;23.218;2024-02-23T21:29:11;2.80;;;1.77;;
9234;SDS011;4652;42.716;23.218;2024-02-23T21:31:38;4.80;;;2.83;;
9234;SDS011;4652;42.716;23.218;2024-02-23T21:34:04;2.83;;;1.92;;
9234;SDS011;4652;42.716;23.218;2024-02-23T21:36:30;3.03;;;2.08;;
9234;SDS011;4652;42.716;23.218;2024-02-23T21:38:56;4.30;;;1.85;;
9234;SDS011;4652;42.716;23.218;2024-02-23T21:41:23;4.32;;;2.58;;
9234;SDS011;4652;42.716;23.218;2024-02-23T21:43:50;4.68;;;3.30;;
9234;SDS011;4652;42.716;23.218;2024-02-23T21:46:16;4.82;;;2.13;;
9234;SDS011;4652;42.716;23.218;2024-02-23T21:48:42;5.30;;;1.85;;
9234;SDS011;4652;42.716;23.218;2024-02-23T21:51:08;6.40;;;3.17;;
9234;SDS011;4652;42.716;23.218;2024-02-23T21:53:35;4.85;;;2.60;;
9234;SDS011;4652;42.716;23.218;2024-02-23T21:56:03;4.80;;;2.80;;
9234;SDS011;4652;42.716;23.218;2024-02-23T21:58:32;5.43;;;2.67;;
9234;SDS011;4652;42.716;23.218;2024-02-23T22:01:00;3.05;;;2.05;;
9234;SDS011;4652;42.716;23.218;2024-02-23T22:03:29;7.75;;;3.33;;
9234;SDS011;4652;42.716;23.218;2024-02-23T22:05:57;6.70;;;2.13;;
9234;SDS011;4652;42.716;23.218;2024-02-23T22:08:23;4.90;;;2.53;;
9234;SDS011;4652;42.716;23.218;2024-02-23T22:10:50;4.07;;;2.38;;
9234;SDS011;4652;42.716;23.218;2024-02-23T22:13:16;3.60;;;2.40;;
9234;SDS011;4652;42.716;23.218;2024-02-23T22:15:42;5.47;;;2.78;;
9234;SDS011;4652;42.716;23.218;2024-02-23T22:18:09;3.05;;;2.22;;
9234;SDS011;4652;42.716;23.218;2024-02-23T22:20:35;3.20;;;2.13;;
9234;SDS011;4652;42.716;23.218;2024-02-23T22:23:01;4.50;;;2.78;;
9234;SDS011;4652;42.716;23.218;2024-02-23T22:25:28;5.57;;;2.10;;
9234;SDS011;4652;42.716;23.218;2024-02-23T22:27:54;3.72;;;2.30;;
9234;SDS011;4652;42.716;23.218;2024-02-23T22:30:20;3.00;;;2.13;;
9234;SDS011;4652;42.716;23.218;2024-02-23T22:32:46;3.28;;;2.20;;
9234;SDS011;4652;42.716;23.218;2024-02-23T22:35:13;2.92;;;1.77;;
9234;SDS011;4652;42.716;23.218;2024-02-23T22:37:40;2.63;;;1.50;;
9234;SDS011;4652;42.716;23.218;2024-02-23T22:40:07;3.53;;;2.05;;
9234;SDS011;4652;42.716;23.218;2024-02-23T22:42:41;4.00;;;1.95;;
9234;SDS011;4652;42.716;23.218;2024-02-23T22:45:08;2.08;;;1.60;;